createdAt,value
2022-08-10T00:00:50.590Z,61.94
2022-08-10T00:01:45.705Z,62.01
2022-08-10T00:02:41.922Z,62.09
2022-08-10T00:03:36.793Z,62.18
2022-08-10T00:04:32.190Z,62.11
2022-08-10T00:05:27.549Z,62.09
2022-08-10T00:06:24.730Z,62.00
2022-08-10T00:07:18.917Z,62.29
2022-08-10T00:08:22.543Z,62.26
2022-08-10T00:09:10.903Z,62.35
2022-08-10T00:10:05.130Z,62.44
2022-08-10T00:11:01.814Z,62.72
2022-08-10T00:11:56.697Z,62.72
2022-08-10T00:12:53.529Z,62.76
2022-08-10T00:13:47.751Z,62.93
2022-08-10T00:14:43.031Z,62.84
2022-08-10T00:15:52.919Z,63.23
2022-08-10T00:16:34.141Z,63.33
2022-08-10T00:17:28.184Z,63.46
2022-08-10T00:18:34.697Z,63.51
2022-08-10T00:19:19.265Z,63.46
2022-08-10T00:20:13.309Z,63.48
2022-08-10T00:21:08.457Z,63.23
2022-08-10T00:22:04.376Z,63.01
2022-08-10T00:22:59.669Z,62.90
2022-08-10T00:23:55.486Z,63.51
2022-08-10T00:24:50.563Z,63.23
2022-08-10T00:25:45.718Z,63.50
2022-08-10T00:27:50.041Z,64.02
2022-08-10T00:28:02.114Z,63.94
2022-08-10T00:28:33.691Z,64.08
2022-08-10T00:29:27.726Z,64.35
2022-08-10T00:30:22.952Z,64.55
2022-08-10T00:31:18.124Z,64.39
2022-08-10T00:32:13.259Z,64.11
2022-08-10T00:33:09.730Z,64.23
2022-08-10T00:34:04.872Z,64.46
2022-08-10T00:35:00.692Z,64.23
2022-08-10T00:35:55.899Z,64.32
2022-08-10T00:36:51.068Z,64.03
2022-08-10T00:37:56.402Z,63.95
2022-08-10T00:38:43.094Z,63.89
2022-08-10T00:39:39.562Z,63.53
2022-08-10T00:40:37.206Z,63.44
2022-08-10T00:41:29.332Z,63.69
2022-08-10T00:42:23.395Z,63.96
2022-08-10T00:43:23.761Z,63.99
2022-08-10T00:44:14.447Z,64.16
2022-08-10T00:45:08.571Z,64.21
2022-08-10T00:46:03.580Z,64.11
2022-08-10T00:46:58.587Z,64.32
2022-08-10T00:47:53.607Z,64.27
2022-08-10T00:48:49.532Z,64.27
2022-08-10T00:49:45.577Z,64.17
2022-08-10T00:50:39.792Z,64.26
2022-08-10T00:51:47.984Z,64.49
2022-08-10T00:52:32.216Z,64.77
2022-08-10T00:53:26.362Z,64.90
2022-08-10T00:54:24.012Z,64.86
2022-08-10T00:55:17.219Z,64.97
2022-08-10T00:57:14.916Z,64.90
2022-08-10T00:57:18.071Z,64.94
2022-08-10T00:58:03.735Z,65.04
2022-08-10T00:58:57.774Z,65.38
2022-08-10T00:59:59.340Z,65.24
2022-08-10T01:00:48.962Z,65.33
2022-08-10T01:02:09.620Z,65.49
2022-08-10T01:02:39.279Z,65.48
2022-08-10T01:04:54.622Z,65.12
2022-08-10T01:04:57.285Z,65.33
2022-08-10T01:05:24.621Z,65.48
2022-08-10T01:06:18.816Z,65.30
2022-08-10T01:07:14.060Z,65.23
2022-08-10T01:08:09.091Z,65.09
2022-08-10T01:09:04.194Z,64.91
2022-08-10T01:09:59.177Z,65.12
2022-08-10T01:10:58.501Z,65.42
2022-08-10T01:12:40.869Z,65.64
2022-08-10T01:12:49.756Z,65.79
2022-08-10T01:13:43.640Z,65.27
2022-08-10T01:14:38.619Z,65.26
2022-08-10T01:15:33.750Z,65.32
2022-08-10T01:16:28.875Z,65.22
2022-08-10T01:17:23.987Z,65.02
2022-08-10T01:18:20.590Z,65.18
2022-08-10T01:19:14.741Z,65.23
2022-08-10T01:20:09.914Z,65.29
2022-08-10T01:21:06.156Z,65.31
2022-08-10T01:22:01.021Z,65.27
2022-08-10T01:22:56.224Z,65.65
2022-08-10T01:23:51.518Z,65.61
2022-08-10T01:24:47.329Z,65.85
2022-08-10T01:26:11.092Z,66.15
2022-08-10T01:26:40.760Z,66.29
2022-08-10T01:27:32.799Z,66.21
2022-08-10T01:28:28.614Z,66.26
2022-08-10T01:29:23.756Z,66.10
2022-08-10T01:30:18.967Z,66.25
2022-08-10T01:31:15.277Z,66.25
2022-08-10T01:32:10.422Z,66.62
2022-08-10T01:33:06.269Z,66.42
2022-08-10T01:34:02.580Z,66.26
2022-08-10T01:34:56.543Z,66.37
2022-08-10T01:35:51.577Z,66.23
2022-08-10T01:36:46.570Z,65.96
2022-08-10T01:37:51.863Z,65.83
2022-08-10T01:38:41.154Z,65.76
2022-08-10T01:39:36.190Z,65.88
2022-08-10T01:40:31.369Z,65.86
2022-08-10T01:41:27.167Z,65.47
2022-08-10T01:42:23.328Z,64.54
2022-08-10T01:43:18.103Z,65.47
2022-08-10T01:44:13.234Z,65.46
2022-08-10T01:45:09.208Z,65.32
2022-08-10T01:46:04.193Z,65.44
2022-08-10T01:46:59.317Z,65.02
2022-08-10T01:47:55.169Z,65.43
2022-08-10T01:48:50.338Z,65.39
2022-08-10T01:49:45.590Z,65.51
2022-08-10T01:50:53.407Z,65.87
2022-08-10T01:51:38.118Z,66.05
2022-08-10T01:52:33.133Z,65.92
2022-08-10T01:53:28.189Z,66.12
2022-08-10T01:54:24.826Z,66.32
2022-08-10T01:55:18.995Z,66.60
2022-08-10T01:56:14.958Z,66.88
2022-08-10T01:57:10.071Z,66.61
2022-08-10T01:58:05.190Z,66.25
2022-08-10T01:59:01.056Z,66.27
2022-08-10T02:00:02.133Z,66.50
2022-08-10T02:00:53.110Z,66.57
2022-08-10T02:01:47.176Z,66.87
2022-08-10T02:02:42.299Z,66.84
2022-08-10T02:04:04.129Z,66.93
2022-08-10T02:04:33.386Z,66.43
2022-08-10T02:05:27.460Z,66.39
2022-08-10T02:06:22.445Z,66.23
2022-08-10T02:07:17.450Z,65.98
2022-08-10T02:08:12.484Z,66.00
2022-08-10T02:09:07.835Z,66.24
2022-08-10T02:10:02.607Z,64.74
2022-08-10T02:10:57.774Z,65.76
2022-08-10T02:12:05.107Z,65.69
2022-08-10T02:12:49.463Z,65.58
2022-08-10T02:13:43.671Z,65.63
2022-08-10T02:14:40.064Z,65.84
2022-08-10T02:15:35.197Z,66.06
2022-08-10T02:16:31.034Z,65.94
2022-08-10T02:17:57.748Z,65.51
2022-08-10T02:18:22.433Z,65.14
2022-08-10T02:19:17.695Z,65.03
2022-08-10T02:20:12.326Z,65.23
2022-08-10T02:21:07.518Z,64.31
2022-08-10T02:22:36.818Z,65.39
2022-08-10T02:23:00.091Z,65.53
2022-08-10T02:23:54.342Z,65.62
2022-08-10T02:24:50.570Z,65.65
2022-08-10T02:25:44.659Z,65.50
2022-08-10T02:26:39.869Z,65.36
2022-08-10T02:27:34.974Z,65.48
2022-08-10T02:28:31.081Z,65.92
2022-08-10T02:29:25.069Z,65.92
2022-08-10T02:30:20.143Z,65.94
2022-08-10T02:31:15.153Z,65.88
2022-08-10T02:32:10.321Z,65.82
2022-08-10T02:33:05.354Z,65.78
2022-08-10T02:34:00.417Z,65.81
2022-08-10T02:34:55.438Z,66.03
2022-08-10T02:35:55.417Z,65.47
2022-08-10T02:36:46.609Z,66.20
2022-08-10T02:37:40.595Z,66.19
2022-08-10T02:38:58.065Z,66.51
2022-08-10T02:39:35.331Z,66.38
2022-08-10T02:42:17.961Z,66.00
2022-08-10T02:45:13.777Z,65.39
2022-08-10T02:45:19.191Z,66.59
2022-08-10T02:45:20.984Z,66.82
2022-08-10T02:45:26.073Z,66.66
2022-08-10T02:45:26.983Z,66.34
2022-08-10T02:46:00.757Z,66.56
2022-08-10T02:46:54.858Z,66.55
2022-08-10T02:47:52.169Z,66.33
2022-08-10T02:48:45.099Z,65.91
2022-08-10T02:49:44.354Z,65.75
2022-08-10T02:50:39.529Z,65.08
2022-08-10T02:52:06.451Z,65.51
2022-08-10T02:52:31.026Z,65.08
2022-08-10T02:53:56.650Z,64.83
2022-08-10T02:54:21.153Z,64.81
2022-08-10T02:55:17.917Z,64.34
2022-08-10T02:56:10.248Z,63.89
2022-08-10T02:57:05.341Z,64.27
2022-08-10T02:58:15.298Z,64.88
2022-08-10T02:58:56.422Z,64.23
2022-08-10T02:59:50.432Z,63.38
2022-08-10T03:00:45.593Z,64.70
2022-08-10T03:01:40.553Z,64.87
2022-08-10T03:02:35.744Z,64.98
2022-08-10T03:03:30.582Z,64.16
2022-08-10T03:04:55.214Z,65.27
2022-08-10T03:05:21.643Z,65.41
2022-08-10T03:06:15.728Z,65.36
2022-08-10T03:07:10.823Z,65.02
2022-08-10T03:08:06.108Z,64.97
2022-08-10T03:09:01.239Z,64.36
2022-08-10T03:09:56.397Z,64.27
2022-08-10T03:10:51.700Z,64.90
2022-08-10T03:12:35.315Z,65.06
2022-08-10T03:12:42.768Z,65.23
2022-08-10T03:13:36.830Z,65.24
2022-08-10T03:14:33.299Z,65.55
2022-08-10T03:15:28.425Z,65.56
2022-08-10T03:16:23.416Z,65.56
2022-08-10T03:17:18.533Z,65.14
2022-08-10T03:18:13.543Z,65.18
2022-08-10T03:20:03.974Z,65.35
2022-08-10T03:20:36.870Z,65.47
2022-08-10T03:20:59.713Z,65.28
2022-08-10T03:21:53.752Z,65.21
2022-08-10T03:22:48.833Z,65.24
2022-08-10T03:23:43.953Z,65.69
2022-08-10T03:24:39.121Z,65.73
2022-08-10T03:25:34.253Z,65.39
2022-08-10T03:26:29.347Z,65.71
2022-08-10T03:27:24.443Z,65.62
2022-08-10T03:28:20.795Z,65.60
2022-08-10T03:29:15.601Z,65.86
2022-08-10T03:30:29.801Z,66.20
2022-08-10T03:31:06.952Z,66.48
2022-08-10T03:32:01.141Z,66.12
2022-08-10T03:32:57.065Z,66.35
2022-08-10T03:33:52.233Z,65.98
2022-08-10T03:34:47.491Z,66.07
2022-08-10T03:35:43.720Z,65.78
2022-08-10T03:36:44.925Z,65.25
2022-08-10T03:37:35.716Z,65.15
2022-08-10T03:38:29.897Z,65.21
2022-08-10T03:39:25.331Z,65.06
2022-08-10T03:40:21.032Z,65.62
2022-08-10T03:41:17.258Z,65.83
2022-08-10T03:42:11.992Z,64.83
2022-08-10T03:43:07.285Z,64.77
2022-08-10T03:44:02.626Z,65.85
2022-08-10T03:44:58.255Z,65.98
2022-08-10T03:45:55.470Z,66.10
2022-08-10T03:46:48.727Z,66.53
2022-08-10T03:47:43.746Z,66.17
2022-08-10T03:48:49.153Z,65.82
2022-08-10T03:49:34.972Z,65.43
2022-08-10T03:50:51.398Z,65.55
2022-08-10T03:51:25.686Z,65.44
2022-08-10T03:52:19.935Z,65.34
2022-08-10T03:53:25.105Z,65.55
2022-08-10T03:54:12.169Z,65.14
2022-08-10T03:55:06.409Z,65.03
2022-08-10T03:56:29.705Z,64.98
2022-08-10T03:56:59.240Z,65.07
2022-08-10T03:57:54.057Z,65.21
2022-08-10T03:58:49.202Z,65.38
2022-08-10T03:59:44.524Z,65.32
2022-08-10T04:00:40.147Z,65.34
2022-08-10T04:02:42.273Z,65.21
2022-08-10T04:02:44.345Z,65.16
2022-08-10T04:03:29.304Z,65.30
2022-08-10T04:04:24.517Z,65.15
2022-08-10T04:05:17.142Z,65.40
2022-08-10T04:06:12.465Z,65.61
2022-08-10T04:07:08.696Z,65.14
2022-08-10T04:08:03.921Z,65.34
2022-08-10T04:08:59.729Z,65.19
2022-08-10T04:09:56.441Z,65.39
2022-08-10T04:10:50.439Z,65.48
2022-08-10T04:11:45.629Z,65.38
2022-08-10T04:12:40.490Z,65.31
2022-08-10T04:13:39.153Z,65.16
2022-08-10T04:14:44.963Z,65.58
2022-08-10T04:15:30.199Z,64.63
2022-08-10T04:16:25.247Z,65.77
2022-08-10T04:17:59.507Z,65.58
2022-08-10T04:18:16.996Z,65.69
2022-08-10T04:19:11.338Z,65.13
2022-08-10T04:20:06.956Z,64.96
2022-08-10T04:21:02.317Z,65.56
2022-08-10T04:21:57.661Z,65.75
2022-08-10T04:22:54.103Z,65.34
2022-08-10T04:23:53.053Z,65.09
2022-08-10T04:24:45.162Z,65.06
2022-08-10T04:25:40.506Z,64.94
2022-08-10T04:26:35.866Z,65.17
2022-08-10T04:27:31.701Z,65.14
2022-08-10T04:28:27.012Z,65.15
2022-08-10T04:29:22.373Z,64.52
2022-08-10T04:30:17.732Z,64.61
2022-08-10T04:31:13.782Z,64.39
2022-08-10T04:32:09.110Z,64.17
2022-08-10T04:33:04.617Z,64.26
2022-08-10T04:34:00.224Z,63.83
2022-08-10T04:34:56.623Z,63.67
2022-08-10T04:35:51.444Z,63.19
2022-08-10T04:36:46.784Z,63.37
2022-08-10T04:37:46.694Z,63.47
2022-08-10T04:38:38.846Z,63.50
2022-08-10T04:39:33.324Z,63.10
2022-08-10T04:40:30.958Z,63.06
2022-08-10T04:41:25.121Z,63.06
2022-08-10T04:42:20.538Z,63.23
2022-08-10T04:43:16.195Z,62.82
2022-08-10T04:44:11.677Z,62.69
2022-08-10T04:45:07.070Z,62.79
2022-08-10T04:46:03.805Z,62.86
2022-08-10T04:46:59.918Z,63.42
2022-08-10T04:48:00.354Z,63.02
2022-08-10T04:49:01.594Z,63.71
2022-08-10T04:49:56.462Z,62.94
2022-08-10T04:50:41.205Z,63.76
2022-08-10T04:51:35.047Z,63.23
2022-08-10T04:52:30.156Z,63.50
2022-08-10T04:53:25.156Z,62.89
2022-08-10T04:54:20.407Z,62.66
2022-08-10T04:55:15.482Z,63.10
2022-08-10T04:56:10.535Z,63.10
2022-08-10T04:57:05.524Z,63.08
2022-08-10T04:58:00.625Z,62.84
2022-08-10T04:58:55.662Z,62.87
2022-08-10T04:59:50.661Z,62.50
2022-08-10T05:00:45.685Z,62.77
2022-08-10T05:02:29.182Z,62.55
2022-08-10T05:02:36.934Z,62.35
2022-08-10T05:03:31.243Z,62.44
2022-08-10T05:04:36.278Z,62.34
2022-08-10T05:05:23.063Z,62.26
2022-08-10T05:06:17.924Z,62.39
2022-08-10T05:07:16.368Z,62.13
2022-08-10T05:08:09.616Z,62.08
2022-08-10T05:09:05.019Z,62.75
2022-08-10T05:10:05.391Z,61.69
2022-08-10T05:10:56.773Z,61.79
2022-08-10T05:11:52.489Z,62.33
2022-08-10T05:12:47.882Z,62.21
2022-08-10T05:13:43.390Z,61.76
2022-08-10T05:14:38.653Z,61.66
2022-08-10T05:15:34.302Z,61.45
2022-08-10T05:16:31.883Z,61.40
2022-08-10T05:17:25.130Z,61.41
2022-08-10T05:18:20.657Z,61.44
2022-08-10T05:19:16.053Z,61.46
2022-08-10T05:20:11.611Z,61.36
2022-08-10T05:21:07.048Z,61.44
2022-08-10T05:22:04.588Z,61.50
2022-08-10T05:22:57.837Z,61.52
2022-08-10T05:23:53.328Z,60.84
2022-08-10T05:24:52.586Z,60.92
2022-08-10T05:25:48.035Z,60.86
2022-08-10T05:27:09.128Z,60.97
2022-08-10T05:27:39.073Z,60.72
2022-08-10T05:28:35.116Z,60.95
2022-08-10T05:29:28.277Z,60.74
2022-08-10T05:30:23.338Z,60.33
2022-08-10T05:31:22.451Z,60.10
2022-08-10T05:32:15.372Z,60.31
2022-08-10T05:33:09.973Z,60.64
2022-08-10T05:34:05.195Z,60.48
2022-08-10T05:35:01.800Z,60.54
2022-08-10T05:35:57.991Z,60.49
2022-08-10T05:36:51.720Z,60.54
2022-08-10T05:38:10.636Z,60.55
2022-08-10T05:38:43.783Z,59.98
2022-08-10T05:39:38.183Z,59.95
2022-08-10T05:40:33.531Z,59.88
2022-08-10T05:41:28.548Z,59.93
2022-08-10T05:42:23.631Z,60.64
2022-08-10T05:43:18.653Z,59.95
2022-08-10T05:44:13.826Z,60.20
2022-08-10T05:45:08.879Z,60.17
2022-08-10T05:46:18.082Z,59.78
2022-08-10T05:46:59.993Z,60.11
2022-08-10T05:48:40.711Z,59.98
2022-08-10T05:48:59.549Z,59.60
2022-08-10T05:49:46.538Z,59.67
2022-08-10T05:50:40.610Z,59.75
2022-08-10T05:51:35.644Z,59.81
2022-08-10T05:52:30.687Z,59.38
2022-08-10T05:54:00.910Z,59.40
2022-08-10T05:54:21.787Z,59.54
2022-08-10T05:55:17.229Z,59.58
2022-08-10T05:56:11.503Z,59.82
2022-08-10T05:57:06.563Z,59.70
2022-08-10T05:58:01.578Z,59.64
2022-08-10T05:58:56.631Z,59.53
2022-08-10T06:00:29.530Z,59.31
2022-08-10T06:00:50.187Z,59.44
2022-08-10T06:01:41.812Z,59.62
2022-08-10T06:02:36.749Z,59.15
2022-08-10T06:03:31.811Z,59.08
2022-08-10T06:04:26.833Z,58.76
2022-08-10T06:05:21.861Z,59.03
2022-08-10T06:06:18.302Z,58.63
2022-08-10T06:07:11.893Z,58.69
2022-08-10T06:08:06.954Z,58.68
2022-08-10T06:09:02.253Z,58.73
2022-08-10T06:09:59.050Z,58.81
2022-08-10T06:12:24.725Z,58.85
2022-08-10T06:12:27.437Z,58.58
2022-08-10T06:12:55.382Z,58.33
2022-08-10T06:13:59.699Z,58.60
2022-08-10T06:14:36.762Z,58.51
2022-08-10T06:15:51.892Z,58.36
2022-08-10T06:16:26.909Z,58.03
2022-08-10T06:17:21.028Z,57.94
2022-08-10T06:18:16.310Z,57.79
2022-08-10T06:19:11.893Z,57.85
2022-08-10T06:20:07.509Z,58.18
2022-08-10T06:21:02.682Z,58.19
2022-08-10T06:22:01.149Z,57.99
2022-08-10T06:22:53.521Z,57.82
2022-08-10T06:23:49.082Z,57.71
2022-08-10T06:25:10.085Z,57.39
2022-08-10T06:26:11.213Z,57.28
2022-08-10T06:26:36.339Z,57.53
2022-08-10T06:27:34.741Z,57.51
2022-08-10T06:28:27.487Z,57.62
2022-08-10T06:29:22.956Z,57.52
2022-08-10T06:30:19.980Z,57.40
2022-08-10T06:31:13.040Z,57.60
2022-08-10T06:32:08.090Z,57.68
2022-08-10T06:33:03.099Z,57.53
2022-08-10T06:33:58.430Z,57.30
2022-08-10T06:34:53.349Z,57.19
2022-08-10T06:35:48.524Z,57.05
2022-08-10T06:36:44.376Z,57.21
2022-08-10T06:37:39.393Z,56.94
2022-08-10T06:38:34.515Z,57.00
2022-08-10T06:39:34.148Z,56.67
2022-08-10T06:40:26.740Z,56.66
2022-08-10T06:41:20.926Z,56.58
2022-08-10T06:42:17.875Z,56.73
2022-08-10T06:43:11.782Z,56.67
2022-08-10T06:44:07.208Z,56.30
2022-08-10T06:45:02.765Z,56.17
2022-08-10T06:46:07.513Z,55.62
2022-08-10T06:46:54.641Z,55.85
2022-08-10T06:47:49.170Z,55.68
2022-08-10T06:48:44.614Z,56.04
2022-08-10T06:49:40.090Z,56.66
2022-08-10T06:50:55.899Z,56.74
2022-08-10T06:51:31.999Z,57.02
2022-08-10T06:52:26.411Z,56.82
2022-08-10T06:53:21.424Z,56.67
2022-08-10T06:54:16.465Z,56.15
2022-08-10T06:55:11.667Z,56.00
2022-08-10T06:56:06.652Z,55.21
2022-08-10T06:57:17.802Z,55.33
2022-08-10T06:58:00.107Z,55.65
2022-08-10T06:58:51.913Z,55.79
2022-08-10T06:59:49.373Z,55.67
2022-08-10T07:00:44.533Z,55.81
2022-08-10T07:01:39.517Z,55.86
2022-08-10T07:02:34.516Z,55.53
2022-08-10T07:03:29.537Z,55.25
2022-08-10T07:04:32.823Z,54.91
2022-08-10T07:05:21.099Z,54.78
2022-08-10T07:06:15.480Z,54.72
2022-08-10T07:07:10.928Z,54.33
2022-08-10T07:08:06.385Z,53.67
2022-08-10T07:09:01.812Z,53.51
2022-08-10T07:09:57.335Z,53.78
2022-08-10T07:10:52.707Z,53.79
2022-08-10T07:11:48.110Z,53.86
2022-08-10T07:12:43.557Z,54.02
2022-08-10T07:14:16.732Z,53.82
2022-08-10T07:14:35.430Z,53.66
2022-08-10T07:15:59.596Z,53.85
2022-08-10T07:16:26.538Z,54.14
2022-08-10T07:17:20.940Z,53.75
2022-08-10T07:18:16.478Z,53.84
2022-08-10T07:19:11.911Z,53.60
2022-08-10T07:20:07.388Z,53.54
2022-08-10T07:21:02.880Z,53.23
2022-08-10T07:21:58.302Z,52.79
2022-08-10T07:23:01.619Z,52.38
2022-08-10T07:23:57.634Z,52.01
2022-08-10T07:24:45.664Z,51.96
2022-08-10T07:25:39.656Z,52.07
2022-08-10T07:26:34.804Z,51.17
2022-08-10T07:27:29.864Z,51.04
2022-08-10T07:28:25.974Z,51.23
2022-08-10T07:29:52.688Z,51.11
2022-08-10T07:30:16.055Z,50.50
2022-08-10T07:31:49.303Z,50.64
2022-08-10T07:32:06.240Z,50.76
2022-08-10T07:33:00.344Z,50.49
2022-08-10T07:33:55.332Z,50.46
2022-08-10T07:34:50.321Z,50.75
2022-08-10T07:35:45.362Z,50.67
2022-08-10T07:36:40.345Z,50.09
2022-08-10T07:37:35.362Z,49.85
2022-08-10T07:38:30.642Z,50.84
2022-08-10T07:40:02.131Z,50.75
2022-08-10T07:40:21.983Z,50.66
2022-08-10T07:41:15.829Z,50.82
2022-08-10T07:42:11.434Z,50.27
2022-08-10T07:43:06.706Z,50.10
2022-08-10T07:44:02.288Z,49.96
2022-08-10T07:44:57.822Z,49.19
2022-08-10T07:45:53.387Z,49.74
2022-08-10T07:46:48.923Z,48.87
2022-08-10T07:47:53.861Z,49.31
2022-08-10T07:48:40.942Z,49.55
2022-08-10T07:49:35.516Z,49.24
2022-08-10T07:50:33.098Z,49.11
2022-08-10T07:51:27.349Z,48.54
2022-08-10T07:52:22.219Z,48.12
2022-08-10T07:53:17.818Z,48.43
2022-08-10T07:54:13.205Z,48.57
2022-08-10T07:55:08.688Z,47.97
2022-08-10T07:56:20.949Z,48.29
2022-08-10T07:57:00.664Z,47.70
2022-08-10T07:57:55.029Z,47.98
2022-08-10T07:58:51.778Z,48.30
2022-08-10T07:59:46.169Z,48.69
2022-08-10T08:00:41.590Z,48.53
2022-08-10T08:01:37.183Z,47.83
2022-08-10T08:02:33.235Z,47.51
2022-08-10T08:03:27.886Z,46.91
2022-08-10T08:04:23.423Z,47.44
2022-08-10T08:05:57.680Z,47.23
2022-08-10T08:06:15.423Z,47.09
2022-08-10T08:07:09.878Z,46.66
2022-08-10T08:08:05.503Z,46.92
2022-08-10T08:09:00.818Z,47.30
2022-08-10T08:09:57.018Z,46.60
2022-08-10T08:10:51.865Z,47.08
2022-08-10T08:11:47.311Z,46.97
2022-08-10T08:12:42.691Z,46.12
2022-08-10T08:13:38.294Z,46.66
2022-08-10T08:14:37.753Z,46.52
2022-08-10T08:16:20.669Z,46.83
2022-08-10T08:16:29.726Z,47.04
2022-08-10T08:17:24.111Z,46.99
2022-08-10T08:18:25.227Z,47.06
2022-08-10T08:19:37.429Z,46.64
2022-08-10T08:20:11.538Z,46.21
2022-08-10T08:21:09.345Z,45.69
2022-08-10T08:24:04.649Z,45.81
2022-08-10T08:24:06.695Z,46.59
2022-08-10T08:24:06.696Z,46.77
2022-08-10T08:24:48.860Z,45.96
2022-08-10T08:25:43.350Z,45.78
2022-08-10T08:26:38.930Z,45.67
2022-08-10T08:27:34.455Z,45.36
2022-08-10T08:28:29.649Z,45.40
2022-08-10T08:29:24.490Z,45.33
2022-08-10T08:30:26.823Z,45.02
2022-08-10T08:31:15.666Z,45.29
2022-08-10T08:32:09.749Z,44.97
2022-08-10T08:33:04.845Z,44.67
2022-08-10T08:34:00.049Z,45.02
2022-08-10T08:34:55.050Z,44.78
2022-08-10T08:35:50.067Z,44.62
2022-08-10T08:36:45.093Z,44.63
2022-08-10T08:38:32.517Z,44.13
2022-08-10T08:38:36.253Z,44.79
2022-08-10T08:39:30.215Z,44.03
2022-08-10T08:40:25.239Z,44.13
2022-08-10T08:41:21.039Z,43.69
2022-08-10T08:42:16.478Z,43.28
2022-08-10T08:43:11.998Z,43.57
2022-08-10T08:44:07.546Z,43.47
2022-08-10T08:45:02.978Z,43.37
2022-08-10T08:46:01.165Z,43.18
2022-08-10T08:46:59.391Z,43.69
2022-08-10T08:48:04.149Z,43.86
2022-08-10T08:48:46.218Z,43.53
2022-08-10T08:50:09.075Z,43.62
2022-08-10T08:50:36.918Z,44.34
2022-08-10T08:52:08.002Z,44.71
2022-08-10T08:52:28.547Z,43.36
2022-08-10T08:53:23.014Z,42.79
2022-08-10T08:54:17.991Z,42.82
2022-08-10T08:56:03.060Z,43.04
2022-08-10T08:56:08.995Z,43.12
2022-08-10T08:57:03.057Z,43.27
2022-08-10T08:57:58.063Z,42.60
2022-08-10T08:58:53.176Z,42.45
2022-08-10T08:59:48.349Z,42.69
2022-08-10T09:00:45.264Z,42.66
2022-08-10T09:01:41.435Z,41.94
2022-08-10T09:02:36.375Z,42.14
2022-08-10T09:03:31.779Z,41.93
2022-08-10T09:04:27.290Z,41.56
2022-08-10T09:05:22.750Z,41.47
2022-08-10T09:06:18.049Z,40.51
2022-08-10T09:08:00.510Z,40.63
2022-08-10T09:08:10.624Z,40.88
2022-08-10T09:09:05.091Z,40.47
2022-08-10T09:10:00.631Z,40.58
2022-08-10T09:10:56.173Z,40.61
2022-08-10T09:11:51.780Z,40.81
2022-08-10T09:12:47.107Z,40.84
2022-08-10T09:13:42.627Z,41.18
2022-08-10T09:14:37.647Z,41.48
2022-08-10T09:15:40.544Z,41.07
2022-08-10T09:16:28.795Z,40.56
2022-08-10T09:17:22.831Z,40.28
2022-08-10T09:18:17.844Z,40.40
2022-08-10T09:19:28.414Z,40.35
2022-08-10T09:20:08.952Z,39.98
2022-08-10T09:21:03.083Z,39.75
2022-08-10T09:22:12.975Z,40.01
2022-08-10T09:22:57.374Z,40.44
2022-08-10T09:24:04.495Z,41.28
2022-08-10T09:24:45.335Z,41.33
2022-08-10T09:25:39.736Z,40.64
2022-08-10T09:26:35.191Z,40.24
2022-08-10T09:27:30.683Z,40.23
2022-08-10T09:28:26.544Z,39.94
2022-08-10T09:29:21.650Z,39.14
2022-08-10T09:30:16.778Z,38.56
2022-08-10T09:31:21.847Z,38.76
2022-08-10T09:36:16.604Z,38.95
2022-08-10T09:36:20.092Z,38.49
2022-08-10T09:36:20.696Z,37.90
2022-08-10T09:36:22.444Z,38.45
2022-08-10T09:36:24.405Z,38.20
2022-08-10T09:36:43.657Z,38.79
2022-08-10T09:37:40.066Z,38.21
2022-08-10T09:38:34.661Z,38.00
2022-08-10T09:40:06.860Z,37.16
2022-08-10T09:40:59.562Z,37.12
2022-08-10T09:41:21.604Z,37.65
2022-08-10T09:42:15.864Z,37.24
2022-08-10T09:43:25.289Z,37.20
2022-08-10T09:44:09.008Z,37.54
2022-08-10T09:45:03.711Z,37.50
2022-08-10T09:45:59.211Z,37.91
2022-08-10T09:46:54.796Z,37.21
2022-08-10T09:48:02.225Z,37.17
2022-08-10T09:48:47.022Z,37.41
2022-08-10T09:49:59.797Z,37.72
2022-08-10T09:51:22.366Z,38.01
2022-08-10T09:51:45.259Z,38.28
2022-08-10T09:52:27.512Z,38.15
2022-08-10T09:53:21.525Z,37.92
2022-08-10T09:54:16.607Z,37.57
2022-08-10T09:55:11.695Z,36.76
2022-08-10T09:56:17.548Z,35.87
2022-08-10T09:57:43.439Z,36.24
2022-08-10T09:57:59.038Z,36.72
2022-08-10T09:59:27.210Z,36.79
2022-08-10T10:00:00.442Z,37.06
2022-08-10T10:00:43.886Z,37.83
2022-08-10T10:02:03.919Z,38.25
2022-08-10T10:02:34.067Z,37.81
2022-08-10T10:03:28.237Z,37.45
2022-08-10T10:04:23.615Z,37.22
2022-08-10T10:05:19.080Z,36.80
2022-08-10T10:06:14.830Z,36.54
2022-08-10T10:07:10.430Z,36.14
2022-08-10T10:08:06.331Z,35.67
2022-08-10T10:09:10.077Z,35.69
2022-08-10T10:09:58.383Z,35.97
2022-08-10T10:10:53.040Z,35.46
2022-08-10T10:11:48.464Z,35.74
2022-08-10T10:12:44.064Z,35.79
2022-08-10T10:14:01.744Z,36.11
2022-08-10T10:14:36.652Z,35.91
2022-08-10T10:15:31.447Z,35.86
2022-08-10T10:16:26.940Z,36.19
2022-08-10T10:17:22.369Z,35.75
2022-08-10T10:18:18.144Z,36.01
2022-08-10T10:19:13.610Z,36.12
2022-08-10T10:20:09.506Z,36.04
2022-08-10T10:21:04.791Z,35.47
2022-08-10T10:22:00.362Z,35.78
2022-08-10T10:22:56.202Z,35.62
2022-08-10T10:24:19.708Z,35.63
2022-08-10T10:24:48.065Z,35.28
2022-08-10T10:25:50.653Z,35.62
2022-08-10T10:26:39.296Z,35.10
2022-08-10T10:27:33.821Z,35.27
2022-08-10T10:28:44.437Z,35.33
2022-08-10T10:29:58.700Z,35.20
2022-08-10T10:30:22.070Z,34.68
2022-08-10T10:31:17.094Z,34.87
2022-08-10T10:32:12.320Z,34.52
2022-08-10T10:33:07.856Z,34.64
2022-08-10T10:34:04.661Z,34.24
2022-08-10T10:34:59.075Z,33.94
2022-08-10T10:35:54.739Z,33.87
2022-08-10T10:36:50.029Z,34.06
2022-08-10T10:38:10.305Z,34.18
2022-08-10T10:38:42.796Z,34.84
2022-08-10T10:39:37.208Z,35.56
2022-08-10T10:40:33.094Z,35.62
2022-08-10T10:41:28.665Z,35.03
2022-08-10T10:42:44.155Z,34.96
2022-08-10T10:43:21.027Z,35.29
2022-08-10T10:44:15.509Z,35.16
2022-08-10T10:45:11.338Z,35.01
2022-08-10T10:46:06.727Z,34.87
2022-08-10T10:47:02.048Z,34.86
2022-08-10T10:47:57.927Z,34.03
2022-08-10T10:48:53.711Z,34.80
2022-08-10T10:49:49.038Z,33.73
2022-08-10T10:50:45.568Z,34.24
2022-08-10T10:51:41.188Z,34.17
2022-08-10T10:52:36.677Z,34.08
2022-08-10T10:53:32.164Z,33.86
2022-08-10T10:54:28.217Z,34.02
2022-08-10T10:55:23.553Z,34.24
2022-08-10T10:56:19.038Z,34.33
2022-08-10T10:57:14.585Z,33.73
2022-08-10T10:58:10.725Z,33.99
2022-08-10T10:59:54.199Z,34.19
2022-08-10T11:00:02.968Z,34.22
2022-08-10T11:01:00.338Z,34.20
2022-08-10T11:01:55.779Z,33.42
2022-08-10T11:02:51.123Z,33.72
2022-08-10T11:03:46.665Z,33.40
2022-08-10T11:04:41.735Z,33.29
2022-08-10T11:05:36.835Z,33.23
2022-08-10T11:06:40.195Z,33.42
2022-08-10T11:07:32.031Z,33.31
2022-08-10T11:08:28.993Z,33.45
2022-08-10T11:10:05.211Z,33.30
2022-08-10T11:10:33.122Z,33.28
2022-08-10T11:11:10.899Z,33.45
2022-08-10T11:12:04.826Z,33.85
2022-08-10T11:12:57.264Z,34.44
2022-08-10T11:14:25.043Z,33.90
2022-08-10T11:14:48.509Z,33.49
2022-08-10T11:15:47.392Z,33.04
2022-08-10T11:16:38.417Z,32.70
2022-08-10T11:17:33.886Z,32.33
2022-08-10T11:18:30.094Z,32.73
2022-08-10T11:19:25.489Z,33.03
2022-08-10T11:20:22.231Z,32.82
2022-08-10T11:21:16.802Z,32.27
2022-08-10T11:22:16.225Z,32.21
2022-08-10T11:23:08.558Z,32.89
2022-08-10T11:24:47.078Z,32.61
2022-08-10T11:25:01.104Z,32.52
2022-08-10T11:25:55.374Z,32.27
2022-08-10T11:26:50.893Z,32.48
2022-08-10T11:27:47.306Z,32.03
2022-08-10T11:28:42.651Z,31.95
2022-08-10T11:29:39.698Z,31.62
2022-08-10T11:30:34.431Z,32.04
2022-08-10T11:31:30.008Z,31.74
2022-08-10T11:32:25.895Z,31.81
2022-08-10T11:33:31.061Z,31.63
2022-08-10T11:34:47.519Z,31.81
2022-08-10T11:35:13.634Z,31.42
2022-08-10T11:36:08.329Z,31.70
2022-08-10T11:37:03.787Z,31.28
2022-08-10T11:38:32.071Z,30.89
2022-08-10T11:39:13.451Z,31.03
2022-08-10T11:39:51.384Z,30.74
2022-08-10T11:40:46.052Z,31.01
2022-08-10T11:42:12.333Z,31.28
2022-08-10T11:42:38.100Z,30.77
2022-08-10T11:43:33.193Z,30.93
2022-08-10T11:44:28.620Z,30.85
2022-08-10T11:45:24.305Z,31.13
2022-08-10T11:46:28.452Z,31.49
2022-08-10T11:47:16.777Z,31.46
2022-08-10T11:48:11.603Z,31.64
2022-08-10T11:49:07.899Z,31.43
2022-08-10T11:50:02.277Z,31.78
2022-08-10T11:50:58.841Z,31.05
2022-08-10T11:51:54.358Z,30.41
2022-08-10T11:52:49.968Z,30.65
2022-08-10T11:53:45.450Z,30.71